createdAt,value
2023-03-04T00:01:45.670Z,5.70
2023-03-04T00:04:14.053Z,5.70
2023-03-04T00:06:42.285Z,5.70
2023-03-04T00:09:10.622Z,5.70
2023-03-04T00:11:39.060Z,5.70
2023-03-04T00:14:07.433Z,5.70
2023-03-04T00:16:35.591Z,5.80
2023-03-04T00:19:05.657Z,5.80
2023-03-04T00:21:33.810Z,5.90
2023-03-04T00:24:02.003Z,5.80
2023-03-04T00:26:30.371Z,5.80
2023-03-04T00:28:58.563Z,5.80
2023-03-04T00:31:26.962Z,5.80
2023-03-04T00:33:55.391Z,5.80
2023-03-04T00:36:25.159Z,5.80
2023-03-04T00:38:53.436Z,5.80
2023-03-04T00:41:22.209Z,5.80
2023-03-04T00:43:50.491Z,5.80
2023-03-04T00:46:18.767Z,5.80
2023-03-04T00:48:47.063Z,5.70
2023-03-04T00:51:15.354Z,5.70
2023-03-04T00:53:44.874Z,5.90
2023-03-04T00:56:13.345Z,5.90
2023-03-04T00:58:41.906Z,5.90
2023-03-04T01:01:10.154Z,6.00
2023-03-04T01:03:41.569Z,6.00
2023-03-04T01:06:10.007Z,6.00
2023-03-04T01:08:38.325Z,6.00
2023-03-04T01:11:08.335Z,6.00
2023-03-04T01:13:36.706Z,6.00
2023-03-04T01:16:06.205Z,6.10
2023-03-04T01:18:35.294Z,6.00
2023-03-04T01:21:03.709Z,6.00
2023-03-04T01:23:31.882Z,6.00
2023-03-04T01:26:00.125Z,6.00
2023-03-04T01:28:29.899Z,6.00
2023-03-04T01:30:58.107Z,6.10
2023-03-04T01:33:26.678Z,6.10
2023-03-04T01:35:55.121Z,6.20
2023-03-04T01:38:23.291Z,6.20
2023-03-04T01:40:52.011Z,6.00
2023-03-04T01:43:24.462Z,6.10
2023-03-04T01:45:55.472Z,6.00
2023-03-04T01:48:27.990Z,5.90
2023-03-04T01:50:56.804Z,5.90
2023-03-04T01:53:27.690Z,6.00
2023-03-04T01:55:58.138Z,6.00
2023-03-04T01:58:30.220Z,6.00
2023-03-04T02:01:00.287Z,6.10
2023-03-04T02:03:29.228Z,6.00
2023-03-04T02:05:58.012Z,6.00
2023-03-04T02:08:26.973Z,6.00
2023-03-04T02:10:56.145Z,5.90
2023-03-04T02:13:24.611Z,6.00
2023-03-04T02:15:53.155Z,6.10
2023-03-04T02:18:25.429Z,6.00
2023-03-04T02:21:01.648Z,5.90
2023-03-04T02:23:35.852Z,5.90
2023-03-04T02:26:21.750Z,5.90
2023-03-04T02:28:52.051Z,5.90
2023-03-04T02:31:29.793Z,5.90
2023-03-04T02:34:00.728Z,5.90
2023-03-04T02:36:30.235Z,5.90
2023-03-04T02:39:03.775Z,5.90
2023-03-04T02:41:33.539Z,5.90
2023-03-04T02:44:01.755Z,5.90
2023-03-04T02:46:30.202Z,5.90
2023-03-04T02:48:58.742Z,6.00
2023-03-04T02:51:26.890Z,6.00
2023-03-04T02:53:55.204Z,6.00
2023-03-04T02:56:23.739Z,5.90
2023-03-04T02:58:53.304Z,6.00
2023-03-04T03:01:21.622Z,6.00
2023-03-04T03:03:50.216Z,6.00
2023-03-04T03:06:18.355Z,6.10
2023-03-04T03:08:46.486Z,6.10
2023-03-04T03:11:14.985Z,6.00
2023-03-04T03:13:43.154Z,6.10
2023-03-04T03:16:12.705Z,6.00
2023-03-04T03:18:41.863Z,6.00
2023-03-04T03:21:10.020Z,6.10
2023-03-04T03:23:38.193Z,6.10
2023-03-04T03:26:06.931Z,6.10
2023-03-04T03:28:35.159Z,6.10
2023-03-04T03:31:03.308Z,6.10
2023-03-04T03:33:33.234Z,6.20
2023-03-04T03:36:01.709Z,6.20
2023-03-04T03:38:30.371Z,6.20
2023-03-04T03:40:59.075Z,6.10
2023-03-04T03:43:27.413Z,6.10
2023-03-04T03:45:55.567Z,6.00
2023-03-04T03:48:24.378Z,6.00
2023-03-04T03:50:53.885Z,6.00
2023-03-04T03:53:22.038Z,6.10
2023-03-04T03:55:50.518Z,6.10
2023-03-04T03:58:18.733Z,6.00
2023-03-04T04:00:46.906Z,6.10
2023-03-04T04:03:16.806Z,6.00
2023-03-04T04:05:44.978Z,6.00
2023-03-04T04:08:16.451Z,6.10
2023-03-04T04:10:45.160Z,6.20
2023-03-04T04:13:13.478Z,6.10
2023-03-04T04:15:41.898Z,6.10
2023-03-04T04:18:10.753Z,6.10
2023-03-04T04:20:38.892Z,6.10
2023-03-04T04:23:07.535Z,6.10
2023-03-04T04:25:37.167Z,6.10
2023-03-04T04:28:05.418Z,6.10
2023-03-04T04:30:33.938Z,6.10
2023-03-04T04:33:04.998Z,6.10
2023-03-04T04:35:34.089Z,6.00
2023-03-04T04:38:02.261Z,6.00
2023-03-04T04:40:30.497Z,6.10
2023-03-04T04:43:00.244Z,6.10
2023-03-04T04:45:28.451Z,6.10
2023-03-04T04:47:57.671Z,6.10
2023-03-04T04:50:26.348Z,6.10
2023-03-04T04:52:54.808Z,6.10
2023-03-04T04:55:23.204Z,6.00
2023-03-04T04:57:51.542Z,6.00
2023-03-04T05:00:21.906Z,6.00
2023-03-04T05:02:50.218Z,5.90
2023-03-04T05:05:18.939Z,6.00
2023-03-04T05:07:47.099Z,6.00
2023-03-04T05:10:15.283Z,6.10
2023-03-04T05:12:45.490Z,6.10
2023-03-04T05:15:13.644Z,6.10
2023-03-04T05:17:43.188Z,6.10
2023-03-04T05:20:12.481Z,6.00
2023-03-04T05:22:40.868Z,6.10
2023-03-04T05:25:09.516Z,6.10
2023-03-04T05:27:37.889Z,6.00
2023-03-04T05:30:07.176Z,6.00
2023-03-04T05:32:35.377Z,6.00
2023-03-04T05:35:05.421Z,6.00
2023-03-04T05:37:33.665Z,6.00
2023-03-04T05:40:01.917Z,6.10
2023-03-04T05:42:30.472Z,6.10
2023-03-04T05:44:58.793Z,6.00
2023-03-04T05:47:27.024Z,5.90
2023-03-04T05:49:55.754Z,6.10
2023-03-04T05:52:25.601Z,6.10
2023-03-04T05:54:53.714Z,6.10
2023-03-04T05:57:22.057Z,6.10
2023-03-04T05:59:50.393Z,6.00
2023-03-04T06:02:18.626Z,6.00
2023-03-04T06:04:47.021Z,6.10
2023-03-04T06:07:15.351Z,6.00
2023-03-04T06:09:45.293Z,5.90
2023-03-04T06:12:13.783Z,5.90
2023-03-04T06:14:42.074Z,5.80
2023-03-04T06:17:10.253Z,5.80
2023-03-04T06:19:39.081Z,5.90
2023-03-04T06:22:07.434Z,5.90
2023-03-04T06:24:36.015Z,5.90
2023-03-04T06:27:06.035Z,5.90
2023-03-04T06:29:34.422Z,5.90
2023-03-04T06:32:02.789Z,5.90
2023-03-04T06:34:31.208Z,5.90
2023-03-04T06:36:59.580Z,6.10
2023-03-04T06:39:27.846Z,6.10
2023-03-04T06:41:56.189Z,6.10
2023-03-04T06:44:25.887Z,6.10
2023-03-04T06:46:54.097Z,6.10
2023-03-04T06:49:22.517Z,6.20
2023-03-04T06:51:50.838Z,6.00
2023-03-04T06:54:18.975Z,6.00
2023-03-04T06:56:47.352Z,6.10
2023-03-04T06:59:15.822Z,6.10
2023-03-04T07:01:45.470Z,6.00
2023-03-04T07:04:15.619Z,5.80
2023-03-04T07:06:43.953Z,5.90
2023-03-04T07:09:12.151Z,6.00
2023-03-04T07:11:40.510Z,5.90
2023-03-04T07:14:08.781Z,6.00
2023-03-04T07:16:37.001Z,6.00
2023-03-04T07:19:06.863Z,6.00
2023-03-04T07:21:35.313Z,6.00
2023-03-04T07:24:03.771Z,6.00
2023-03-04T07:26:32.466Z,6.10
2023-03-04T07:29:01.827Z,6.10
2023-03-04T07:31:32.080Z,6.20
2023-03-04T07:34:02.360Z,6.20
2023-03-04T07:36:32.337Z,6.10
2023-03-04T07:39:00.440Z,6.10
2023-03-04T07:41:31.204Z,6.10
2023-03-04T07:44:00.031Z,6.10
2023-03-04T07:46:28.187Z,6.10
2023-03-04T07:48:56.889Z,6.20
2023-03-04T07:51:26.704Z,6.20
2023-03-04T07:53:58.574Z,6.30
2023-03-04T07:56:28.595Z,6.40
2023-03-04T07:58:56.810Z,6.40
2023-03-04T08:01:27.492Z,6.50
2023-03-04T08:03:55.756Z,6.50
2023-03-04T08:06:24.317Z,6.50
2023-03-04T08:09:00.005Z,6.50
2023-03-04T08:11:31.042Z,6.60
2023-03-04T08:13:59.894Z,6.50
2023-03-04T08:16:28.594Z,6.50
2023-03-04T08:18:58.615Z,6.50
2023-03-04T08:21:27.959Z,6.60
2023-03-04T08:23:58.328Z,6.50
2023-03-04T08:26:30.239Z,6.50
2023-03-04T08:28:59.210Z,6.50
2023-03-04T08:31:27.531Z,6.60
2023-03-04T08:33:56.660Z,6.60
2023-03-04T08:36:24.984Z,6.60
2023-03-04T08:38:53.169Z,6.70
2023-03-04T08:41:22.813Z,6.70
2023-03-04T08:43:52.495Z,6.60
2023-03-04T08:46:20.756Z,6.80
2023-03-04T08:48:49.411Z,6.90
2023-03-04T08:51:18.173Z,6.90
2023-03-04T08:53:46.718Z,6.90
2023-03-04T08:56:17.059Z,6.90
2023-03-04T08:58:45.321Z,7.10
2023-03-04T09:01:15.898Z,7.30
2023-03-04T09:03:44.623Z,7.40
2023-03-04T09:06:16.362Z,7.40
2023-03-04T09:08:44.636Z,7.40
2023-03-04T09:11:12.954Z,7.30
2023-03-04T09:13:41.540Z,7.10
2023-03-04T09:16:11.258Z,7.00
2023-03-04T09:18:42.304Z,7.00
2023-03-04T09:21:11.464Z,6.90
2023-03-04T09:23:40.347Z,6.80
2023-03-04T09:26:16.930Z,6.70
2023-03-04T09:28:45.234Z,6.80
2023-03-04T09:31:14.533Z,6.90
2023-03-04T09:33:44.634Z,6.90
2023-03-04T09:36:14.479Z,7.00
2023-03-04T09:38:43.610Z,7.00
2023-03-04T09:41:17.769Z,7.10
2023-03-04T09:43:47.679Z,7.30
2023-03-04T09:46:18.777Z,7.40
2023-03-04T09:48:50.978Z,7.50
2023-03-04T09:51:31.911Z,7.60
2023-03-04T09:54:09.146Z,7.80
2023-03-04T09:56:39.780Z,7.70
2023-03-04T09:59:18.483Z,7.80
2023-03-04T10:01:51.141Z,7.80
2023-03-04T10:04:32.471Z,7.90
2023-03-04T10:07:02.028Z,7.80
2023-03-04T10:09:34.171Z,7.90
2023-03-04T10:12:05.770Z,7.90
2023-03-04T10:14:38.612Z,8.00
2023-03-04T10:17:14.670Z,8.10
2023-03-04T10:20:00.860Z,8.20
2023-03-04T10:22:34.358Z,8.10
2023-03-04T10:25:17.376Z,8.00
2023-03-04T10:27:49.818Z,8.00
2023-03-04T10:30:27.896Z,7.90
2023-03-04T10:32:56.178Z,7.80
2023-03-04T10:35:34.476Z,7.70
2023-03-04T10:38:05.462Z,7.80
2023-03-04T10:40:40.829Z,7.70
2023-03-04T10:43:16.540Z,7.60
2023-03-04T10:45:45.721Z,7.50
2023-03-04T10:48:23.481Z,7.40
2023-03-04T10:50:53.173Z,7.60
2023-03-04T10:53:33.660Z,7.80
2023-03-04T10:56:03.285Z,8.10
2023-03-04T10:58:31.598Z,8.30
2023-03-04T11:01:06.256Z,8.40
2023-03-04T11:03:36.812Z,8.60
2023-03-04T11:06:17.085Z,8.90
2023-03-04T11:08:47.559Z,9.20
2023-03-04T11:11:34.972Z,9.30
2023-03-04T11:14:09.773Z,9.30
2023-03-04T11:16:38.688Z,9.50
2023-03-04T11:19:12.147Z,9.80
2023-03-04T11:21:43.387Z,10.00
2023-03-04T11:24:28.401Z,10.30
2023-03-04T11:27:02.588Z,10.50
2023-03-04T11:29:36.421Z,10.20
2023-03-04T11:32:12.253Z,10.20
2023-03-04T11:34:45.291Z,10.10
2023-03-04T11:37:20.656Z,10.00
2023-03-04T11:39:54.109Z,9.90
2023-03-04T11:42:33.495Z,9.90
2023-03-04T11:45:01.844Z,9.70
2023-03-04T11:47:53.889Z,9.60
2023-03-04T11:50:30.067Z,9.40
2023-03-04T11:53:28.039Z,9.50
2023-03-04T11:56:12.467Z,9.50
2023-03-04T11:58:59.891Z,9.40
2023-03-04T12:01:38.942Z,9.30
2023-03-04T12:04:28.373Z,9.60
2023-03-04T12:07:10.057Z,9.80
2023-03-04T12:09:48.750Z,9.80
2023-03-04T12:12:31.877Z,9.90
2023-03-04T12:15:09.895Z,9.90
2023-03-04T12:17:54.257Z,9.70
2023-03-04T12:20:37.605Z,9.90
2023-03-04T12:23:21.980Z,9.90
2023-03-04T12:26:05.033Z,10.10
2023-03-04T12:28:52.530Z,10.10
2023-03-04T12:31:38.239Z,10.10
2023-03-04T12:34:31.758Z,10.10
2023-03-04T12:37:20.869Z,10.10
2023-03-04T12:40:06.047Z,10.20
2023-03-04T12:42:44.317Z,10.40
2023-03-04T12:45:21.504Z,10.50
2023-03-04T12:47:59.500Z,10.50
2023-03-04T12:50:39.172Z,10.50
2023-03-04T12:53:19.798Z,10.40
2023-03-04T12:55:50.956Z,10.30
2023-03-04T12:58:25.359Z,10.20
2023-03-04T13:01:01.198Z,10.20
2023-03-04T13:03:41.005Z,10.10
2023-03-04T13:06:30.679Z,9.90
2023-03-04T13:09:06.238Z,9.60
2023-03-04T13:11:53.454Z,9.70
2023-03-04T13:14:29.149Z,9.60
2023-03-04T13:17:01.619Z,9.50
2023-03-04T13:19:52.749Z,9.60
2023-03-04T13:22:34.251Z,9.60
2023-03-04T13:25:19.598Z,9.60
2023-03-04T13:27:50.148Z,9.70
2023-03-04T13:31:05.914Z,9.80
2023-03-04T13:34:02.378Z,9.90
2023-03-04T13:36:50.375Z,10.00
2023-03-04T13:39:33.570Z,10.10
2023-03-04T13:42:03.202Z,10.10
2023-03-04T13:45:02.047Z,10.10
2023-03-04T13:47:48.046Z,10.10
2023-03-04T13:50:44.590Z,9.90
2023-03-04T13:53:44.069Z,9.70
2023-03-04T13:56:28.922Z,9.70
2023-03-04T13:59:25.225Z,9.60
2023-03-04T14:02:00.008Z,9.50
2023-03-04T14:04:36.052Z,9.30
2023-03-04T14:07:18.076Z,9.30
2023-03-04T14:09:59.897Z,9.20
2023-03-04T14:12:30.461Z,9.10
2023-03-04T14:15:01.155Z,9.10
2023-03-04T14:17:32.779Z,9.00
2023-03-04T14:20:03.489Z,9.10
2023-03-04T14:22:33.613Z,9.20
2023-03-04T14:25:05.358Z,9.30
2023-03-04T14:27:36.458Z,9.40
2023-03-04T14:30:07.557Z,9.40
2023-03-04T14:32:35.976Z,9.40
2023-03-04T14:35:08.354Z,9.40
2023-03-04T14:37:43.756Z,9.50
2023-03-04T14:40:22.065Z,9.60
2023-03-04T14:42:56.510Z,9.60
2023-03-04T14:45:25.960Z,9.70
2023-03-04T14:47:58.581Z,9.80
2023-03-04T14:50:28.503Z,9.70
2023-03-04T14:53:15.277Z,9.70
2023-03-04T14:55:58.036Z,9.80
2023-03-04T14:58:28.044Z,9.70
2023-03-04T15:01:16.041Z,9.60
2023-03-04T15:03:57.050Z,9.40
2023-03-04T15:06:28.879Z,9.40
2023-03-04T15:08:59.633Z,9.40
2023-03-04T15:11:30.267Z,9.30
2023-03-04T15:14:00.517Z,9.40
2023-03-04T15:16:49.985Z,9.40
2023-03-04T15:19:27.425Z,9.40
2023-03-04T15:22:07.127Z,9.50
2023-03-04T15:24:35.362Z,9.50
2023-03-04T15:27:07.813Z,9.40
2023-03-04T15:29:36.561Z,9.40
2023-03-04T15:32:05.053Z,9.30
2023-03-04T15:34:33.255Z,9.30
2023-03-04T15:37:02.037Z,9.20
2023-03-04T15:39:31.648Z,9.20
2023-03-04T15:41:59.951Z,9.30
2023-03-04T15:44:28.892Z,9.30
2023-03-04T15:46:57.234Z,9.20
2023-03-04T15:49:25.485Z,9.20
2023-03-04T15:51:54.284Z,9.20
2023-03-04T15:54:26.110Z,9.00
2023-03-04T15:56:58.438Z,9.00
2023-03-04T15:59:27.080Z,9.10
2023-03-04T16:01:55.271Z,9.00
2023-03-04T16:04:23.945Z,8.90
2023-03-04T16:06:52.198Z,8.90
2023-03-04T16:09:22.064Z,8.80
2023-03-04T16:11:50.622Z,8.80
2023-03-04T16:14:20.569Z,8.70
2023-03-04T16:16:50.518Z,8.80
2023-03-04T16:19:18.821Z,8.60
2023-03-04T16:21:47.521Z,8.60
2023-03-04T16:24:19.953Z,8.60
2023-03-04T16:26:49.298Z,8.60
2023-03-04T16:29:19.182Z,8.50
2023-03-04T16:31:47.668Z,8.50
2023-03-04T16:34:16.080Z,8.60
2023-03-04T16:36:44.332Z,8.60
2023-03-04T16:39:19.320Z,8.80
2023-03-04T16:41:47.525Z,8.70
2023-03-04T16:44:16.238Z,8.60
2023-03-04T16:46:46.230Z,8.50
2023-03-04T16:49:14.444Z,8.40
2023-03-04T16:51:46.396Z,8.50
2023-03-04T16:54:18.137Z,8.50
2023-03-04T16:56:46.397Z,8.50
2023-03-04T16:59:17.730Z,8.50
2023-03-04T17:01:49.852Z,8.40
2023-03-04T17:04:18.108Z,8.40
2023-03-04T17:06:46.425Z,8.30
2023-03-04T17:09:15.104Z,8.40
2023-03-04T17:11:43.885Z,8.30
2023-03-04T17:14:12.073Z,8.20
2023-03-04T17:16:40.706Z,8.20
2023-03-04T17:19:10.266Z,8.20
2023-03-04T17:21:38.483Z,8.20
2023-03-04T17:24:11.053Z,8.10
2023-03-04T17:26:39.900Z,8.10
2023-03-04T17:29:08.282Z,8.10
2023-03-04T17:31:38.291Z,7.90
2023-03-04T17:34:06.699Z,7.90
2023-03-04T17:36:36.829Z,7.80
2023-03-04T17:39:07.424Z,7.80
2023-03-04T17:41:36.291Z,7.80
2023-03-04T17:44:05.897Z,7.80
2023-03-04T17:46:34.397Z,7.80
2023-03-04T17:49:02.806Z,7.70
2023-03-04T17:51:33.959Z,7.60
2023-03-04T17:54:05.896Z,7.40
2023-03-04T17:56:35.285Z,7.40
2023-03-04T17:59:06.926Z,7.40
2023-03-04T18:01:35.421Z,7.40
2023-03-04T18:04:03.889Z,7.60
2023-03-04T18:06:32.404Z,7.60
2023-03-04T18:09:00.623Z,7.50
2023-03-04T18:11:30.890Z,7.50
2023-03-04T18:13:59.434Z,7.60
2023-03-04T18:16:28.942Z,7.50
2023-03-04T18:18:58.778Z,7.50
2023-03-04T18:21:28.183Z,7.40
2023-03-04T18:23:57.370Z,7.40
2023-03-04T18:26:25.899Z,7.40
2023-03-04T18:28:57.119Z,7.40
2023-03-04T18:31:30.283Z,7.60
2023-03-04T18:34:00.778Z,7.50
2023-03-04T18:36:29.631Z,7.50
2023-03-04T18:38:59.592Z,7.40
2023-03-04T18:41:28.375Z,7.40
2023-03-04T18:43:58.234Z,7.40
2023-03-04T18:46:45.017Z,7.40
2023-03-04T18:49:15.332Z,7.40
2023-03-04T18:51:43.802Z,7.40
2023-03-04T18:54:12.672Z,7.50
2023-03-04T18:56:45.813Z,7.40
2023-03-04T18:59:19.198Z,7.40
2023-03-04T19:01:48.740Z,7.40
2023-03-04T19:04:19.509Z,7.30
2023-03-04T19:06:47.879Z,7.30
2023-03-04T19:09:16.214Z,7.30
2023-03-04T19:11:44.413Z,7.40
2023-03-04T19:14:13.057Z,7.40
2023-03-04T19:16:42.811Z,7.40
2023-03-04T19:19:11.133Z,7.40
2023-03-04T19:21:40.390Z,7.40
2023-03-04T19:24:09.143Z,7.30
2023-03-04T19:26:37.438Z,7.10
2023-03-04T19:29:07.426Z,7.20
2023-03-04T19:31:41.035Z,7.10
2023-03-04T19:34:11.328Z,7.00
2023-03-04T19:36:39.679Z,7.10
2023-03-04T19:39:09.293Z,7.10
2023-03-04T19:41:37.983Z,7.00
2023-03-04T19:44:06.337Z,7.10
2023-03-04T19:46:34.753Z,7.10
2023-03-04T19:49:04.874Z,7.10
2023-03-04T19:51:34.675Z,7.10
2023-03-04T19:54:03.244Z,7.20
2023-03-04T19:56:31.693Z,7.20
2023-03-04T19:59:00.119Z,7.20
2023-03-04T20:01:30.156Z,7.30
2023-03-04T20:04:00.705Z,7.20
2023-03-04T20:06:29.637Z,7.20
2023-03-04T20:09:01.848Z,7.20
2023-03-04T20:11:31.235Z,7.20
2023-03-04T20:13:59.671Z,7.20
2023-03-04T20:16:28.768Z,7.20
2023-03-04T20:18:58.013Z,7.30
2023-03-04T20:21:26.730Z,7.30
2023-03-04T20:23:55.675Z,7.30
2023-03-04T20:26:25.351Z,7.30
2023-03-04T20:28:53.642Z,7.30
2023-03-04T20:31:24.771Z,7.20
2023-03-04T20:33:54.143Z,7.10
2023-03-04T20:36:24.591Z,7.10
2023-03-04T20:39:02.028Z,7.10
2023-03-04T20:41:34.787Z,7.10
2023-03-04T20:44:03.320Z,7.10
2023-03-04T20:46:37.947Z,7.00
2023-03-04T20:49:08.623Z,7.00
2023-03-04T20:51:38.008Z,7.00
2023-03-04T20:54:06.975Z,7.00
2023-03-04T20:56:37.939Z,6.90
2023-03-04T20:59:08.960Z,6.80
2023-03-04T21:01:39.652Z,6.80
2023-03-04T21:04:08.248Z,6.80
2023-03-04T21:06:38.664Z,6.80
2023-03-04T21:09:09.853Z,6.70
2023-03-04T21:11:41.182Z,6.60
2023-03-04T21:14:12.746Z,6.70
2023-03-04T21:16:41.539Z,6.70
2023-03-04T21:19:15.104Z,6.70
2023-03-04T21:21:43.356Z,6.70
2023-03-04T21:24:16.317Z,6.80
2023-03-04T21:26:47.720Z,6.70
2023-03-04T21:29:17.481Z,6.70
2023-03-04T21:31:48.521Z,6.70
2023-03-04T21:34:19.242Z,6.80
2023-03-04T21:36:47.629Z,6.80
2023-03-04T21:39:17.795Z,6.80
2023-03-04T21:41:48.315Z,6.80
2023-03-04T21:44:27.791Z,6.80
2023-03-04T21:46:58.284Z,6.80
2023-03-04T21:49:26.765Z,6.80
2023-03-04T21:51:55.305Z,6.80
2023-03-04T21:54:24.176Z,6.80
2023-03-04T21:56:53.768Z,6.80
2023-03-04T21:59:22.993Z,6.80
2023-03-04T22:01:51.551Z,6.80
2023-03-04T22:04:19.806Z,6.90
2023-03-04T22:06:48.020Z,6.80
2023-03-04T22:09:16.844Z,6.80
2023-03-04T22:11:45.113Z,6.90
2023-03-04T22:14:14.936Z,6.80
2023-03-04T22:16:59.039Z,6.80
2023-03-04T22:19:31.153Z,6.80
2023-03-04T22:22:00.538Z,6.90
2023-03-04T22:24:28.850Z,6.80
2023-03-04T22:26:59.860Z,6.80
2023-03-04T22:29:29.807Z,6.80
2023-03-04T22:31:58.221Z,6.80
2023-03-04T22:34:26.487Z,6.80
2023-03-04T22:36:54.849Z,6.80
2023-03-04T22:39:23.560Z,6.80
2023-03-04T22:41:51.889Z,6.80
2023-03-04T22:44:20.344Z,6.70
2023-03-04T22:46:50.067Z,6.80
2023-03-04T22:49:18.363Z,6.80
2023-03-04T22:51:46.871Z,6.70
2023-03-04T22:54:17.230Z,6.70
2023-03-04T22:56:45.778Z,6.70
2023-03-04T22:59:17.058Z,6.70
2023-03-04T23:01:45.295Z,6.60
2023-03-04T23:04:15.112Z,6.60
2023-03-04T23:06:43.559Z,6.60
2023-03-04T23:09:11.709Z,6.60
2023-03-04T23:11:40.108Z,6.60
2023-03-04T23:14:09.739Z,6.60
2023-03-04T23:16:42.520Z,6.60
2023-03-04T23:19:13.881Z,6.60
2023-03-04T23:21:43.770Z,6.60
2023-03-04T23:24:13.135Z,6.70
2023-03-04T23:26:42.371Z,6.70
2023-03-04T23:29:12.943Z,6.60
2023-03-04T23:31:41.419Z,6.60
2023-03-04T23:34:11.438Z,6.70
2023-03-04T23:36:40.801Z,6.60
2023-03-04T23:39:11.340Z,6.60
2023-03-04T23:41:40.009Z,6.60
2023-03-04T23:44:09.317Z,6.60
2023-03-04T23:46:39.249Z,6.60
2023-03-04T23:49:09.051Z,6.50
2023-03-04T23:51:38.500Z,6.60
2023-03-04T23:54:09.337Z,6.60
2023-03-04T23:56:39.822Z,6.50
2023-03-04T23:59:08.773Z,6.50
